Time;durP1;ratioP1;P1;durP2;ratioP2;P2;SDS_P1;SDS_P2;PMS_P1;PMS_P2;Temp;Humidity;BMP_temperature;BMP_pressure;BME280_temperature;BME280_humidity;BME280_pressure;Samples;Min_cycle;Max_cycle;Signal;HPM_P1;HPM_P2
2022/05/31 00:01:08;;;;;;;6.18;3.08;;;;;;;16.99;100.00;100489.38;5087727;28;20096;-62
2022/05/31 00:03:53;;;;;;;5.68;3.13;;;;;;;17.18;100.00;100514.56;5088668;28;20063;-63
2022/05/31 00:06:37;;;;;;;9.13;3.28;;;;;;;17.15;100.00;100512.03;5073254;28;20059;-63
2022/05/31 00:09:22;;;;;;;7.53;3.28;;;;;;;17.13;100.00;100513.88;5088519;28;20124;-63
2022/05/31 00:12:07;;;;;;;9.95;3.42;;;;;;;17.11;100.00;100523.78;5088150;28;20097;-70
2022/05/31 00:14:51;;;;;;;7.20;3.22;;;;;;;16.93;100.00;100483.34;5073067;28;20050;-62
2022/05/31 00:17:35;;;;;;;6.07;2.83;;;;;;;17.10;100.00;100510.44;5086175;28;20153;-63
2022/05/31 00:20:20;;;;;;;6.60;2.83;;;;;;;17.12;100.00;100519.28;5073046;28;20063;-61
2022/05/31 00:23:08;;;;;;;7.43;2.92;;;;;;;17.14;100.00;100515.59;5087667;28;20062;-61
2022/05/31 00:25:53;;;;;;;10.48;3.10;;;;;;;16.89;100.00;100482.56;5088413;28;20051;-61
2022/05/31 00:28:37;;;;;;;9.43;3.05;;;;;;;17.06;100.00;100508.78;5089756;28;20415;-62
2022/05/31 00:31:22;;;;;;;6.57;2.88;;;;;;;17.11;100.00;100518.41;5072808;28;20125;-68
2022/05/31 00:34:07;;;;;;;7.85;2.80;;;;;;;17.07;100.00;100516.78;5089762;28;20136;-62
2022/05/31 00:36:52;;;;;;;7.53;3.15;;;;;;;17.09;100.00;100527.44;5072091;28;20052;-62
2022/05/31 00:39:37;;;;;;;4.82;2.38;;;;;;;17.03;100.00;100520.47;5074351;28;20499;-62
2022/05/31 00:42:22;;;;;;;14.48;3.13;;;;;;;17.02;100.00;100529.44;5059944;28;20066;-62
2022/05/31 00:45:07;;;;;;;7.57;2.83;;;;;;;17.04;100.00;100534.72;5074142;28;20109;-61
2022/05/31 00:47:52;;;;;;;5.13;2.33;;;;;;;17.03;100.00;100535.69;5074027;28;20081;-61
2022/05/31 00:50:43;;;;;;;10.00;2.97;;;;;;;17.00;100.00;100538.44;5058056;28;20569;-68
2022/05/31 00:53:35;;;;;;;4.78;2.50;;;;;;;16.96;100.00;100528.75;5088759;28;20458;-62
2022/05/31 00:56:25;;;;;;;9.40;2.60;;;;;;;16.94;100.00;100536.00;5071496;28;20043;-62
2022/05/31 00:59:28;;;;;;;5.25;2.45;;;;;;;16.95;100.00;100537.72;5084884;28;20411;-64
2022/05/31 01:02:17;;;;;;;13.35;3.28;;;;;;;16.91;100.00;100538.78;5086674;28;20043;-62
2022/05/31 01:05:04;;;;;;;7.10;2.90;;;;;;;16.86;100.00;100546.94;5073972;28;20097;-61
2022/05/31 01:07:49;;;;;;;12.65;3.17;;;;;;;16.82;100.00;100537.25;5086733;28;20067;-63
2022/05/31 01:10:33;;;;;;;6.65;2.78;;;;;;;16.76;100.00;100534.78;5073588;28;20079;-63
2022/05/31 01:13:36;;;;;;;9.88;2.80;;;;;;;16.68;100.00;100538.63;5073381;28;20043;-62
2022/05/31 01:16:59;;;;;;;8.98;2.97;;;;;;;16.70;100.00;100532.31;5086819;28;20184;-63
2022/05/31 01:20:07;;;;;;;7.97;2.80;;;;;;;16.68;100.00;100536.84;5087279;28;20557;-63
2022/05/31 01:23:16;;;;;;;6.70;2.92;;;;;;;16.64;100.00;100529.84;5071976;28;20511;-64
2022/05/31 01:26:12;;;;;;;7.25;2.70;;;;;;;16.68;100.00;100549.34;5069911;28;20051;-63
2022/05/31 01:29:28;;;;;;;7.28;2.20;;;;;;;16.68;100.00;100542.22;5071742;28;20058;-64
2022/05/31 01:32:13;;;;;;;8.35;2.58;;;;;;;16.60;100.00;100538.91;4985886;28;20101;-68
2022/05/31 01:35:09;;;;;;;6.55;3.10;;;;;;;16.53;100.00;100544.47;4987189;28;20049;-61
2022/05/31 01:38:05;;;;;;;6.57;2.85;;;;;;;16.50;100.00;100544.59;4985932;28;20053;-62
2022/05/31 01:41:04;;;;;;;8.55;2.90;;;;;;;16.46;100.00;100543.81;4986225;28;20113;-68
2022/05/31 01:43:52;;;;;;;8.65;2.80;;;;;;;16.42;100.00;100531.44;4986460;28;20133;-63
2022/05/31 01:46:36;;;;;;;8.30;3.00;;;;;;;16.39;100.00;100546.69;4987107;28;20109;-61
2022/05/31 01:49:22;;;;;;;9.20;2.70;;;;;;;16.19;100.00;100511.66;4986636;28;20121;-65
2022/05/31 01:52:08;;;;;;;6.28;2.72;;;;;;;16.20;100.00;100508.03;4986884;28;20049;-60
2022/05/31 01:54:53;;;;;;;7.95;2.67;;;;;;;16.34;100.00;100543.28;4971022;28;20431;-61
2022/05/31 01:57:42;;;;;;;6.03;2.47;;;;;;;16.35;100.00;100534.34;4986406;28;20081;-61
2022/05/31 02:00:27;;;;;;;5.78;2.35;;;;;;;16.12;100.00;100519.00;4986939;28;20879;-62
2022/05/31 02:03:16;;;;;;;9.63;3.05;;;;;;;16.28;100.00;100533.66;4973169;28;20473;-61
2022/05/31 02:06:00;;;;;;;6.00;2.45;;;;;;;16.34;100.00;100543.28;4973510;28;20113;-64
2022/05/31 02:08:45;;;;;;;;;;;;;;;16.45;100.00;100550.09;5055159;28;20128;-63
2022/05/31 02:11:30;;;;;;;5.38;2.38;;;;;;;16.43;100.00;100551.94;5074879;28;19922;-62
2022/05/31 02:14:22;;;;;;;7.70;2.42;;;;;;;16.31;100.00;100549.63;5045780;28;20047;-61
2022/05/31 02:17:07;;;;;;;4.78;2.55;;;;;;;16.20;100.00;100532.13;5058494;28;20067;-68
2022/05/31 02:20:29;;;;;;;6.28;3.08;;;;;;;16.28;100.00;100568.44;5085942;28;20051;-63
2022/05/31 02:23:14;;;;;;;9.45;3.00;;;;;;;16.29;100.00;100559.47;5073177;28;20054;-60
2022/05/31 02:25:59;;;;;;;9.25;3.00;;;;;;;16.33;100.00;100558.47;5090261;28;20050;-62
2022/05/31 02:28:44;;;;;;;7.80;3.20;;;;;;;16.31;100.00;100560.34;5062466;28;20564;-61
2022/05/31 02:31:30;;;;;;;6.40;3.17;;;;;;;16.28;100.00;100559.53;5091808;28;20055;-61
2022/05/31 02:34:19;;;;;;;6.05;2.90;;;;;;;16.35;100.00;100569.13;5061718;28;20142;-63
2022/05/31 02:37:04;;;;;;;8.02;2.95;;;;;;;16.37;100.00;100570.84;5076052;28;20043;-61
2022/05/31 02:39:49;;;;;;;;;;;;;;;16.47;100.00;100572.34;5074531;28;20059;-62
2022/05/31 02:42:39;;;;;;;7.38;2.90;;;;;;;16.41;100.00;100561.81;5076057;28;19923;-61
2022/05/31 02:45:23;;;;;;;5.80;2.67;;;;;;;16.49;100.00;100562.47;5075982;28;20039;-63
2022/05/31 02:48:09;;;;;;;8.15;3.05;;;;;;;16.32;100.00;100527.28;5075313;28;20153;-73
2022/05/31 02:50:53;;;;;;;5.07;2.90;;;;;;;16.53;100.00;100572.16;5075873;28;20055;-61
2022/05/31 02:53:38;;;;;;;5.93;2.70;;;;;;;16.60;100.00;100571.03;5073785;28;20058;-62
2022/05/31 02:56:22;;;;;;;5.13;2.58;;;;;;;16.60;100.00;100549.63;5091109;28;20424;-62
2022/05/31 02:59:25;;;;;;;7.03;2.22;;;;;;;16.77;100.00;100575.88;5090921;28;20051;-62
2022/05/31 03:02:48;;;;;;;5.22;2.60;;;;;;;16.80;100.00;100573.06;5027548;28;20060;-63
2022/05/31 03:06:01;;;;;;;7.82;2.55;;;;;;;16.81;100.00;100585.56;5024459;28;20099;-63
2022/05/31 03:08:58;;;;;;;3.55;2.33;;;;;;;16.81;100.00;100580.19;5013469;28;20083;-65
2022/05/31 03:11:55;;;;;;;8.52;2.97;;;;;;;16.88;100.00;100582.63;5011211;28;20045;-65
2022/05/31 03:14:45;;;;;;;5.55;2.20;;;;;;;16.83;100.00;100583.69;5027092;28;20056;-61
2022/05/31 03:17:51;;;;;;;5.22;2.60;;;;;;;16.78;100.00;100593.69;5012001;28;20137;-63
2022/05/31 03:20:41;;;;;;;8.80;2.70;;;;;;;16.68;100.00;100586.84;5011778;28;20068;-65
2022/05/31 03:23:38;;;;;;;5.85;2.40;;;;;;;16.76;100.00;100590.16;5025407;28;20060;-71
2022/05/31 03:26:28;;;;;;;4.18;2.30;;;;;;;16.77;100.00;100598.16;5025559;28;20512;-61
2022/05/31 03:29:13;;;;;;;5.05;2.83;;;;;;;16.80;100.00;100598.06;5025628;28;20100;-62
2022/05/31 03:31:58;;;;;;;3.28;2.35;;;;;;;16.80;100.00;100597.16;5026104;28;20141;-63
2022/05/31 03:34:43;;;;;;;3.03;1.98;;;;;;;16.81;100.00;100598.94;5075358;28;20042;-62
2022/05/31 03:37:27;;;;;;;;;;;;;;;16.89;100.00;100602.25;5059346;28;20051;-62
2022/05/31 03:40:55;;;;;;;6.13;2.30;;;;;;;16.85;100.00;100596.09;5060911;28;19927;-61
2022/05/31 03:43:17;;;;;;;5.95;2.15;;;;;;;16.89;100.00;100599.56;5074943;28;20054;-62
2022/05/31 03:46:15;;;;;;;3.78;2.00;;;;;;;16.71;100.00;100579.63;5074084;28;20067;-62
2022/05/31 03:49:18;;;;;;;2.75;1.55;;;;;;;16.93;100.00;100609.28;5088032;28;20411;-63
2022/05/31 03:52:13;;;;;;;3.42;1.88;;;;;;;16.92;100.00;100604.81;5074546;28;20063;-63
2022/05/31 03:55:00;;;;;;;5.30;1.75;;;;;;;17.00;100.00;100617.03;5074478;28;20109;-62
2022/05/31 03:58:04;;;;;;;6.70;2.38;;;;;;;17.04;100.00;100624.06;5077644;28;20605;-62
2022/05/31 04:01:11;;;;;;;5.45;2.35;;;;;;;17.04;100.00;100623.16;5090019;28;20260;-63
2022/05/31 04:03:56;;;;;;;4.70;2.08;;;;;;;17.07;100.00;100623.06;5074845;28;20059;-63
2022/05/31 04:06:40;;;;;;;3.47;1.75;;;;;;;17.12;100.00;100624.69;5090056;28;20087;-63
2022/05/31 04:09:25;;;;;;;4.47;2.20;;;;;;;17.10;100.00;100615.81;5073683;28;20457;-77
2022/05/31 04:12:09;;;;;;;5.53;2.33;;;;;;;17.06;100.00;100607.94;5074688;28;20487;-62
2022/05/31 04:15:35;;;;;;;7.43;3.00;;;;;;;17.14;100.00;100620.13;5090014;28;20059;-64
2022/05/31 04:18:20;;;;;;;5.07;2.50;;;;;;;17.13;100.00;100621.06;5034480;28;20056;-63
2022/05/31 04:21:08;;;;;;;5.53;2.72;;;;;;;17.14;100.00;100617.44;5049673;28;20480;-62
2022/05/31 04:23:59;;;;;;;3.47;1.90;;;;;;;17.18;100.00;100611.06;5048598;28;20048;-62
2022/05/31 04:26:48;;;;;;;5.72;2.00;;;;;;;17.20;100.00;100609.22;5047048;28;20159;-63
2022/05/31 04:29:51;;;;;;;5.70;2.28;;;;;;;17.14;100.00;100600.50;5046531;28;20067;-62
2022/05/31 04:32:58;;;;;;;3.70;1.50;;;;;;;17.06;100.00;100576.63;5048187;28;20101;-65
2022/05/31 04:36:01;;;;;;;5.65;1.77;;;;;;;17.35;100.00;100598.00;5047681;28;20071;-63
2022/05/31 04:38:47;;;;;;;3.17;1.95;;;;;;;17.27;100.00;100602.75;5047935;28;20175;-63
2022/05/31 04:41:36;;;;;;;3.38;1.60;;;;;;;17.36;100.00;100610.47;5045979;28;20091;-63
2022/05/31 04:44:27;;;;;;;4.75;1.80;;;;;;;17.41;100.00;100608.53;5047549;28;20536;-62
2022/05/31 04:47:11;;;;;;;2.83;1.30;;;;;;;17.54;100.00;100599.16;5047480;28;20531;-63
2022/05/31 04:50:03;;;;;;;4.15;1.65;;;;;;;17.61;100.00;100600.66;5046885;28;20516;-67
2022/05/31 04:52:52;;;;;;;4.60;1.40;;;;;;;17.45;100.00;100571.78;5048394;28;20087;-61
2022/05/31 04:55:37;;;;;;;;;;;;;;;17.65;100.00;100599.63;5046050;28;20110;-63
2022/05/31 04:58:23;;;;;;;3.17;1.05;;;;;;;17.60;100.00;100593.56;5051846;28;19967;-61
2022/05/31 05:01:07;;;;;;;2.67;1.30;;;;;;;17.48;100.00;100596.66;5047366;28;20516;-64
2022/05/31 05:03:54;;;;;;;4.10;1.15;;;;;;;17.51;100.00;100599.25;5047309;28;20060;-62
2022/05/31 05:06:40;;;;;;;4.10;1.30;;;;;;;17.45;100.00;100595.91;5046506;28;20477;-63
2022/05/31 05:09:24;;;;;;;5.22;1.60;;;;;;;17.46;100.00;100590.50;5045753;28;20106;-61
2022/05/31 05:12:29;;;;;;;3.15;1.40;;;;;;;17.28;100.00;100560.69;5004119;28;20048;-64
2022/05/31 05:15:31;;;;;;;1.90;1.08;;;;;;;17.37;100.00;100584.53;4990214;28;20516;-62
2022/05/31 05:18:16;;;;;;;;;;;;;;;17.61;100.00;100594.44;5004731;28;20482;-64
2022/05/31 05:21:05;;;;;;;5.13;1.30;;;;;;;17.60;100.00;100593.56;4991234;28;20405;-70
2022/05/31 05:23:51;;;;;;;2.70;1.13;;;;;;;17.62;100.00;100580.09;4990513;28;20044;-62
2022/05/31 05:26:46;;;;;;;8.02;1.55;;;;;;;17.66;100.00;100582.63;4991018;28;20140;-62
2022/05/31 05:32:56;;;;;;;3.58;2.10;;;;;;;17.92;100.00;100568.22;4976496;28;20080;-62
2022/05/31 05:35:45;;;;;;;3.95;2.25;;;;;;;17.96;100.00;100572.56;4992256;28;20136;-62
2022/05/31 05:38:29;;;;;;;5.00;2.03;;;;;;;17.96;100.00;100557.31;4992059;28;20048;-63
2022/05/31 05:41:43;;;;;;;5.75;2.20;;;;;;;18.13;100.00;100559.38;4986815;28;20065;-65
2022/05/31 05:44:46;;;;;;;3.60;1.40;;;;;;;18.13;100.00;100562.94;4984373;28;20053;-63
2022/05/31 05:47:32;;;;;;;4.78;1.80;;;;;;;18.13;100.00;100556.72;4986280;28;20184;-62
2022/05/31 05:50:16;;;;;;;4.35;1.45;;;;;;;18.14;100.00;100547.72;5009766;28;20104;-63
2022/05/31 05:53:11;;;;;;;5.13;2.38;;;;;;;18.13;100.00;100548.66;5024506;28;20118;-70
2022/05/31 05:56:14;;;;;;;4.90;1.70;;;;;;;18.12;100.00;100546.03;5025138;28;20150;-62
2022/05/31 05:59:28;;;;;;;2.85;1.63;;;;;;;18.24;100.00;100543.75;4988320;28;20541;-62
2022/05/31 06:02:32;;;;;;;6.90;2.90;;;;;;;18.26;100.00;100552.59;4990276;28;20065;-62
2022/05/31 06:05:35;;;;;;;5.95;3.05;;;;;;;18.28;100.00;100542.69;4976511;28;20206;-62
2022/05/31 06:08:31;;;;;;;8.07;3.08;;;;;;;18.39;100.00;100550.38;4961122;28;20522;-62
2022/05/31 06:11:21;;;;;;;7.72;3.38;;;;;;;18.44;100.00;100551.94;4976878;28;20117;-62
2022/05/31 06:14:13;;;;;;;6.47;3.67;;;;;;;18.55;100.00;100557.72;4989829;28;20052;-62
2022/05/31 06:17:04;;;;;;;6.85;3.47;;;;;;;18.59;100.00;100554.00;4997090;28;20092;-63
2022/05/31 06:19:51;;;;;;;6.05;3.40;;;;;;;18.54;100.00;100557.78;5015343;28;20052;-75
2022/05/31 06:22:39;;;;;;;7.25;3.33;;;;;;;18.59;100.00;100551.31;5015727;28;20087;-62
2022/05/31 06:25:32;;;;;;;5.47;2.90;;;;;;;18.68;100.00;100558.13;5002134;28;20357;-63
2022/05/31 06:28:37;;;;;;;5.78;2.50;;;;;;;18.62;100.00;100535.06;4949087;28;20102;-66
2022/05/31 06:31:21;;;;;;;;;;;;;;;18.76;100.00;100556.00;4938083;29;20154;-68
2022/05/31 06:34:05;;;;;;;8.02;2.40;;;;;;;18.48;100.00;100523.13;4937683;28;19933;-62
2022/05/31 06:37:11;;;;;;;7.57;2.35;;;;;;;18.60;100.00;100552.19;4987381;28;20104;-62
2022/05/31 06:39:57;;;;;;;5.75;2.20;;;;;;;18.60;100.00;100563.81;4989352;28;20084;-63
2022/05/31 06:43:17;;;;;;;4.65;1.80;;;;;;;18.64;100.00;100564.56;4940319;29;20050;-62
2022/05/31 06:46:28;;;;;;;3.95;2.10;;;;;;;18.53;100.00;100554.25;4931596;29;20543;-64
2022/05/31 06:49:33;;;;;;;5.15;1.60;;;;;;;18.30;100.00;100526.50;4931283;29;20440;-62
2022/05/31 06:59:30;;;;;;;3.08;1.23;;;;;;;18.72;100.00;100540.94;4891388;29;20498;-67
2022/05/31 07:02:14;;;;;;;3.85;1.58;;;;;;;18.72;100.00;100541.84;4906626;29;20591;-61
2022/05/31 07:04:59;;;;;;;3.95;1.40;;;;;;;18.82;100.00;100539.66;4921670;29;20136;-62
2022/05/31 07:07:43;;;;;;;6.32;1.52;;;;;;;18.66;100.00;100500.91;4950243;29;20547;-64
2022/05/31 07:11:07;;;;;;;1.92;1.02;;;;;;;18.83;100.00;100539.56;4969287;28;20061;-62
2022/05/31 07:14:10;;;;;;;3.55;1.40;;;;;;;18.71;100.00;100513.19;4969605;28;20574;-63
2022/05/31 07:17:13;;;;;;;6.40;1.55;;;;;;;18.94;100.00;100536.44;4991458;28;20469;-63
2022/05/31 07:20:07;;;;;;;6.28;1.40;;;;;;;19.00;100.00;100537.06;4993865;28;20573;-63
2022/05/31 07:22:52;;;;;;;2.28;1.10;;;;;;;19.03;100.00;100526.16;5008269;28;20163;-64
2022/05/31 07:25:59;;;;;;;4.72;1.13;;;;;;;19.02;100.00;100505.59;5007637;28;20060;-64
2022/05/31 07:28:46;;;;;;;3.15;1.20;;;;;;;19.10;100.00;100527.66;4994670;28;20052;-62
2022/05/31 07:31:35;;;;;;;3.53;1.20;;;;;;;19.27;100.00;100540.44;4992987;28;20457;-69
2022/05/31 07:34:25;;;;;;;3.40;1.20;;;;;;;19.13;100.00;100508.72;4994039;28;20063;-62
2022/05/31 07:37:12;;;;;;;2.75;1.20;;;;;;;19.42;100.00;100543.31;5012947;28;20103;-63
2022/05/31 07:39:57;;;;;;;2.35;1.45;;;;;;;19.50;100.00;100532.25;5014057;28;20088;-63
2022/05/31 07:42:42;;;;;;;3.45;1.30;;;;;;;19.71;100.00;100532.16;5052018;28;20138;-62
2022/05/31 07:45:28;;;;;;;5.22;1.23;;;;;;;19.81;100.00;100532.59;5066997;28;20093;-68
2022/05/31 07:48:13;;;;;;;5.60;1.58;;;;;;;19.77;100.00;100529.16;5068614;28;20094;-64
2022/05/31 07:50:59;;;;;;;1.92;1.10;;;;;;;19.95;100.00;100532.84;5066524;28;20460;-63
2022/05/31 07:54:09;;;;;;;7.75;1.35;;;;;;;20.20;100.00;100533.47;5066142;28;20094;-64
2022/05/31 07:58:30;;;;;;;6.43;1.60;;;;;;;20.22;100.00;100531.59;5067723;28;20585;-69
2022/05/31 08:00:40;;;;;;;4.30;1.10;;;;;;;20.27;100.00;100521.47;5068114;28;20054;-64
2022/05/31 08:03:25;;;;;;;2.47;1.17;;;;;;;20.23;100.00;100526.16;5068350;28;20110;-62
2022/05/31 08:06:12;;;;;;;2.97;1.10;;;;;;;20.21;100.00;100530.72;5069557;28;20051;-62
2022/05/31 08:08:57;;;;;;;4.43;1.20;;;;;;;20.16;100.00;100539.97;5068148;28;20519;-66
2022/05/31 08:11:41;;;;;;;;;;;;;;;20.17;100.00;100541.72;5069437;28;20094;-64
2022/05/31 08:14:25;;;;;;;2.45;1.02;;;;;;;19.92;100.00;100535.66;5067238;28;19923;-62
2022/05/31 08:17:10;;;;;;;2.45;1.10;;;;;;;19.95;100.00;100541.81;5082232;28;20142;-63
2022/05/31 08:19:56;;;;;;;3.65;1.30;;;;;;;19.82;100.00;100535.22;5089002;28;20146;-62
2022/05/31 08:22:40;;;;;;;3.78;1.52;;;;;;;19.73;100.00;100532.06;5073441;28;20055;-63
2022/05/31 08:25:25;;;;;;;2.70;1.45;;;;;;;19.75;100.00;100530.19;5073851;28;20051;-63
2022/05/31 08:28:10;;;;;;;1.77;1.30;;;;;;;19.59;100.00;100513.88;5072884;28;20100;-72
2022/05/31 08:31:01;;;;;;;4.57;1.35;;;;;;;19.63;100.00;100528.94;5088980;28;20063;-63
2022/05/31 08:33:46;;;;;;;1.80;1.30;;;;;;;19.44;100.00;100516.34;5086213;28;20093;-64
2022/05/31 08:36:30;;;;;;;4.63;1.48;;;;;;;19.46;100.00;100514.47;5088751;28;20054;-63
2022/05/31 08:39:14;;;;;;;1.77;1.27;;;;;;;19.59;100.00;100538.09;5092364;28;20425;-62
2022/05/31 08:42:06;;;;;;;2.95;1.48;;;;;;;19.28;100.00;100509.91;5091123;28;20461;-63
2022/05/31 08:45:30;;;;;;;2.53;1.52;;;;;;;19.32;100.00;100515.09;5092293;28;20068;-62
2022/05/31 08:48:20;;;;;;;3.97;1.83;;;;;;;19.32;100.00;100533.03;5089918;28;20522;-63
2022/05/31 08:57:36;;;;;;;6.55;2.22;;;;;;;19.27;100.00;100497.41;5091726;28;20050;-63
2022/05/31 09:00:26;;;;;;;3.80;1.90;;;;;;;19.43;100.00;100534.31;5090186;28;20439;-63
2022/05/31 09:03:23;;;;;;;3.42;1.85;;;;;;;19.45;100.00;100534.22;5107238;28;20050;-63
2022/05/31 09:06:12;;;;;;;3.53;1.80;;;;;;;19.40;100.00;100530.88;5077805;28;20068;-63
2022/05/31 09:09:14;;;;;;;3.67;2.10;;;;;;;19.42;100.00;100529.88;5090138;28;20096;-64
2022/05/31 09:12:06;;;;;;;5.18;3.05;;;;;;;19.42;100.00;100521.78;5107190;28;20460;-68
2022/05/31 09:15:13;;;;;;;8.75;4.43;;;;;;;19.50;100.00;100540.31;5107290;28;20096;-62
2022/05/31 09:18:11;;;;;;;13.02;5.80;;;;;;;19.56;100.00;100530.16;5091566;28;20074;-63
2022/05/31 09:21:04;;;;;;;9.38;4.50;;;;;;;19.62;100.00;100531.69;5107153;28;20054;-64
2022/05/31 09:23:49;;;;;;;6.82;4.40;;;;;;;19.62;100.00;100529.00;5090709;28;20101;-68
2022/05/31 09:26:33;;;;;;;4.68;2.55;;;;;;;19.69;100.00;100519.69;5107313;28;20534;-65
2022/05/31 09:29:22;;;;;;;4.47;2.15;;;;;;;19.72;100.00;100525.81;5104830;28;20533;-63
2022/05/31 09:32:45;;;;;;;7.25;2.05;;;;;;;19.78;100.00;100525.53;5091479;28;20139;-62
2022/05/31 09:35:42;;;;;;;4.68;1.67;;;;;;;19.81;100.00;100532.59;5095523;28;20059;-69
2022/05/31 09:38:54;;;;;;;4.80;1.92;;;;;;;19.98;100.00;100533.56;5111071;28;20082;-65
2022/05/31 09:41:51;;;;;;;7.20;2.30;;;;;;;19.93;100.00;100507.84;5112248;28;20092;-61
2022/05/31 09:44:47;;;;;;;2.95;2.10;;;;;;;20.10;100.00;100530.34;5112855;28;20051;-63
2022/05/31 09:47:31;;;;;;;4.75;2.38;;;;;;;19.93;100.00;100486.28;5093785;28;20062;-62
2022/05/31 09:50:24;;;;;;;6.22;3.03;;;;;;;20.22;100.00;100528.91;5110781;28;20090;-62
2022/05/31 09:57:05;;;;;;;6.22;2.60;;;;;;;20.18;100.00;100521.94;5110902;28;20046;-62
2022/05/31 10:00:03;;;;;;;6.10;2.90;;;;;;;20.50;100.00;100529.34;5110707;28;20088;-62
2022/05/31 10:03:14;;;;;;;4.28;2.40;;;;;;;20.51;100.00;100529.28;5094803;28;20078;-63
2022/05/31 10:06:15;;;;;;;5.65;2.75;;;;;;;20.67;100.00;100515.91;5095032;28;20147;-62
2022/05/31 10:09:16;;;;;;;4.53;1.85;;;;;;;20.88;100.00;100536.41;5112406;28;20054;-62
2022/05/31 10:12:11;;;;;;;2.53;1.90;;;;;;;20.89;100.00;100524.69;5108707;28;20544;-63
2022/05/31 10:14:55;;;;;;;;;;;;;;;20.97;100.00;100525.22;5095778;28;20058;-62
2022/05/31 10:17:42;;;;;;;3.67;2.22;;;;;;;20.98;100.00;100519.75;5095973;28;19926;-62
2022/05/31 10:20:32;;;;;;;3.28;2.05;;;;;;;20.98;100.00;100526.97;5078460;28;20046;-65
2022/05/31 10:23:21;;;;;;;4.30;1.90;;;;;;;21.04;100.00;100526.63;5094324;28;20096;-70
2022/05/31 10:27:04;;;;;;;3.10;1.75;;;;;;;20.93;100.00;100518.22;5068068;28;20440;-66
2022/05/31 10:30:01;;;;;;;4.38;1.55;;;;;;;20.95;100.00;100509.13;5051580;28;20075;-63
2022/05/31 10:33:07;;;;;;;2.85;1.52;;;;;;;21.18;100.00;100526.81;5066476;28;20396;-69
2022/05/31 10:36:15;;;;;;;5.10;1.90;;;;;;;21.29;100.00;100522.59;5066612;28;20097;-63
2022/05/31 10:39:09;;;;;;;2.50;1.50;;;;;;;21.50;100.00;100526.03;5047028;28;20445;-64
2022/05/31 10:41:56;;;;;;;3.25;1.20;;;;;;;21.33;100.00;100486.41;5045134;28;20571;-67
2022/05/31 10:44:52;;;;;;;4.43;1.40;;;;;;;21.49;100.00;100521.59;5032128;28;20091;-60
2022/05/31 10:47:36;;;;;;;2.20;1.20;;;;;;;21.27;100.00;100493.97;5033444;28;20498;-65
2022/05/31 10:50:33;;;;;;;1.90;1.40;;;;;;;21.52;100.00;100518.72;5031847;28;20055;-65
2022/05/31 10:53:37;;;;;;;1.88;1.15;;;;;;;21.61;100.00;100516.41;5034230;28;20055;-61
2022/05/31 10:56:42;;;;;;;2.75;1.15;;;;;;;21.73;100.00;100518.47;5056453;28;20575;-62
2022/05/31 11:00:12;;;;;;;3.15;1.20;;;;;;;21.79;100.00;100519.97;5090840;28;20051;-62
2022/05/31 11:03:05;;;;;;;2.83;1.20;;;;;;;21.70;100.00;100523.13;5090412;28;20519;-62
2022/05/31 11:06:05;;;;;;;3.17;1.30;;;;;;;21.75;100.00;100526.50;5075450;28;20051;-62
2022/05/31 11:12:10;;;;;;;4.70;1.30;;;;;;;21.28;100.00;100512.78;5089859;28;20079;-60
2022/05/31 11:15:00;;;;;;;2.67;1.27;;;;;;;21.05;100.00;100529.25;5075932;28;20043;-72
2022/05/31 11:18:14;;;;;;;3.13;1.50;;;;;;;21.15;100.00;100545.84;5091456;28;20427;-62
2022/05/31 11:21:07;;;;;;;2.58;2.10;;;;;;;21.07;100.00;100543.56;5009667;28;20114;-63
2022/05/31 11:23:54;;;;;;;4.63;1.98;;;;;;;21.01;100.00;100534.91;5008320;28;20068;-62
2022/05/31 11:26:51;;;;;;;3.47;2.00;;;;;;;21.09;100.00;100540.78;5007975;28;20056;-62
2022/05/31 11:29:47;;;;;;;12.75;8.10;;;;;;;21.02;100.00;100539.34;5008033;28;20052;-61
2022/05/31 11:32:32;;;;;;;5.00;2.90;;;;;;;20.94;100.00;100530.75;5007838;28;20151;-61
2022/05/31 11:35:43;;;;;;;6.80;3.50;;;;;;;20.90;100.00;100535.41;5008120;28;20143;-67
2022/05/31 11:38:34;;;;;;;5.75;3.13;;;;;;;20.87;100.00;100540.06;4948750;29;20396;-67
2022/05/31 11:41:44;;;;;;;5.70;2.35;;;;;;;20.83;100.00;100542.06;4949746;29;20110;-61
2022/05/31 11:44:49;;;;;;;4.47;2.30;;;;;;;20.77;100.00;100547.72;4949627;29;20219;-61
2022/05/31 11:47:52;;;;;;;3.75;2.00;;;;;;;20.73;100.00;100534.50;4949993;29;20514;-61
2022/05/31 11:50:39;;;;;;;7.75;4.53;;;;;;;20.62;100.00;100540.41;4949337;28;20094;-61
2022/05/31 11:53:29;;;;;;;6.00;3.42;;;;;;;20.55;100.00;100543.47;4950340;28;20045;-63
2022/05/31 11:56:25;;;;;;;2.88;2.20;;;;;;;20.46;100.00;100549.31;4948491;28;20472;-60
2022/05/31 11:59:31;;;;;;;3.05;1.85;;;;;;;20.48;100.00;100550.97;5027190;28;20867;-62
2022/05/31 12:02:26;;;;;;;3.20;1.70;;;;;;;20.41;100.00;100548.66;5025742;28;20127;-62
2022/05/31 12:05:20;;;;;;;6.85;4.88;;;;;;;20.42;100.00;100550.41;5013069;28;20227;-74
2022/05/31 12:08:14;;;;;;;5.13;3.10;;;;;;;20.48;100.00;100540.19;5026740;28;20195;-65
2022/05/31 12:11:05;;;;;;;2.20;1.60;;;;;;;20.40;100.00;100530.72;5027365;28;20053;-64
2022/05/31 12:13:51;;;;;;;7.20;2.47;;;;;;;20.22;100.00;100501.97;5025832;28;20060;-72
2022/05/31 12:16:36;;;;;;;3.13;1.98;;;;;;;20.24;100.00;100516.22;5089987;28;20096;-65
2022/05/31 12:19:24;;;;;;;;;;;;;;;20.34;100.00;100526.50;5087673;28;20132;-64
2022/05/31 12:22:23;;;;;;;3.70;1.67;;;;;;;20.26;100.00;100527.81;5089359;28;19923;-66
2022/05/31 12:25:13;;;;;;;2.30;1.60;;;;;;;20.16;100.00;100529.19;5089290;28;20104;-62
2022/05/31 12:28:12;;;;;;;3.10;2.03;;;;;;;20.18;100.00;100527.31;5093756;28;20113;-63
2022/05/31 12:31:18;;;;;;;8.45;2.17;;;;;;;20.11;100.00;100529.41;5105944;28;20077;-70
2022/05/31 12:34:28;;;;;;;3.58;2.40;;;;;;;20.09;100.00;100523.22;5092375;28;20104;-68
2022/05/31 12:37:14;;;;;;;5.43;2.70;;;;;;;19.95;100.00;100524.78;5005328;28;20088;-64
2022/05/31 12:40:25;;;;;;;5.72;3.20;;;;;;;19.99;100.00;100516.50;4991730;28;20492;-63
2022/05/31 12:43:13;;;;;;;6.97;3.80;;;;;;;19.95;100.00;100522.06;4994000;28;20544;-63
2022/05/31 12:45:58;;;;;;;6.05;3.67;;;;;;;19.96;100.00;100524.72;5003404;28;20085;-61
2022/05/31 12:49:01;;;;;;;9.07;3.67;;;;;;;19.99;100.00;100521.00;5005149;28;20060;-62
2022/05/31 12:55:21;;;;;;;6.95;3.10;;;;;;;19.92;100.00;100517.72;4990377;28;20093;-62
2022/05/31 13:01:22;;;;;;;8.05;5.05;;;;;;;19.92;100.00;100515.03;5006858;28;19971;-64
2022/05/31 13:04:17;;;;;;;9.52;5.78;;;;;;;19.90;100.00;100521.44;4990249;28;20048;-63
2022/05/31 13:07:18;;;;;;;7.63;4.95;;;;;;;19.94;100.00;100518.50;5004882;28;20661;-62
2022/05/31 13:10:32;;;;;;;3.50;2.70;;;;;;;19.96;100.00;100521.13;4991343;28;20057;-63
2022/05/31 13:19:53;;;;;;;5.82;1.92;;;;;;;19.87;100.00;100516.16;4984253;28;20565;-62
2022/05/31 13:22:42;;;;;;;4.97;2.30;;;;;;;19.86;100.00;100517.13;4958540;28;20057;-63
2022/05/31 13:25:40;;;;;;;3.70;2.30;;;;;;;19.85;100.00;100509.97;4985006;28;20073;-70
2022/05/31 13:28:40;;;;;;;4.00;2.10;;;;;;;19.86;100.00;100514.44;4985269;28;20113;-61
2022/05/31 13:31:28;;;;;;;7.55;3.05;;;;;;;19.84;100.00;100509.13;4985377;28;20415;-63
2022/05/31 13:34:28;;;;;;;5.65;3.08;;;;;;;19.69;100.00;100472.13;4984089;28;20160;-63
2022/05/31 13:37:19;;;;;;;5.85;3.13;;;;;;;19.88;100.00;100508.03;4983938;28;20542;-69
2022/05/31 13:40:05;;;;;;;6.85;3.17;;;;;;;19.81;100.00;100500.28;4985277;28;20076;-68
2022/05/31 13:42:50;;;;;;;6.88;2.72;;;;;;;19.78;100.00;100500.44;4970825;28;20567;-65
2022/05/31 13:45:34;;;;;;;;;;;;;;;19.83;100.00;100498.41;4958621;28;20056;-65
2022/05/31 13:48:22;;;;;;;5.70;2.83;;;;;;;19.80;100.00;100498.53;4972811;28;20064;-62
2022/05/31 13:51:17;;;;;;;5.38;2.67;;;;;;;19.79;100.00;100499.50;5104890;28;20126;-66
2022/05/31 13:54:11;;;;;;;4.07;2.20;;;;;;;19.80;100.00;100494.06;5091128;28;20050;-62
2022/05/31 13:57:02;;;;;;;6.03;2.45;;;;;;;19.81;100.00;100494.91;5107127;28;20510;-63